Time;durP1;ratioP1;P1;durP2;ratioP2;P2;SDS_P1;SDS_P2;PMS_P1;PMS_P2;Temp;Humidity;BMP_temperature;BMP_pressure;BME280_temperature;BME280_humidity;BME280_pressure;Samples;Min_cycle;Max_cycle;Signal;HPM_P1;HPM_P2
2023/04/06 03:00:29;;;;;;;13.67;12.33;;;-1.60;99.90;;;;;;5803230;23;20253;-74
2023/04/06 03:02:55;;;;;;;13.93;12.63;;;-1.60;99.90;;;;;;4905545;29;20195;-73
2023/04/06 03:05:21;;;;;;;14.97;13.50;;;-1.70;99.90;;;;;;4916539;29;20772;-74
2023/04/06 03:07:47;;;;;;;13.27;12.07;;;-1.70;99.90;;;;;;4899716;29;20207;-74
2023/04/06 03:10:13;;;;;;;12.87;11.77;;;-1.70;99.90;;;;;;4899572;29;20213;-74
2023/04/06 03:12:41;;;;;;;15.50;13.60;;;-1.70;99.90;;;;;;4916816;29;20206;-74
2023/04/06 03:15:07;;;;;;;12.67;11.27;;;-1.70;99.90;;;;;;4916589;29;20273;-75
2023/04/06 03:17:33;;;;;;;13.93;12.63;;;-1.70;99.90;;;;;;4900119;29;20235;-74
2023/04/06 03:19:59;;;;;;;14.07;12.70;;;-1.70;99.90;;;;;;4916793;29;20615;-74
2023/04/06 03:22:25;;;;;;;13.30;12.10;;;-1.80;99.90;;;;;;4900026;29;20206;-74
2023/04/06 03:24:51;;;;;;;13.43;12.17;;;-1.90;99.90;;;;;;4916214;29;20190;-74
2023/04/06 03:27:17;;;;;;;13.97;12.40;;;-1.90;99.90;;;;;;4916820;29;20183;-74
2023/04/06 03:29:43;;;;;;;15.10;13.17;;;-2.00;99.90;;;;;;4899087;29;20266;-75
2023/04/06 03:32:10;;;;;;;16.60;13.00;;;-2.10;99.90;;;;;;4899334;29;20210;-74
2023/04/06 03:34:35;;;;;;;15.03;13.33;;;-2.10;99.90;;;;;;4899184;29;20190;-75
2023/04/06 03:37:01;;;;;;;15.67;12.43;;;-2.10;99.90;;;;;;4899322;29;20570;-76
2023/04/06 03:39:27;;;;;;;14.73;13.33;;;-2.00;99.90;;;;;;4915382;29;20211;-75
2023/04/06 03:41:53;;;;;;;16.07;13.10;;;-2.00;99.90;;;;;;4915672;29;20242;-75
2023/04/06 03:44:19;;;;;;;14.47;13.13;;;-2.00;99.90;;;;;;4898756;29;20554;-75
2023/04/06 03:46:45;;;;;;;13.73;12.30;;;-2.00;99.90;;;;;;4898855;29;20567;-75
2023/04/06 03:49:11;;;;;;;14.37;12.97;;;-2.00;99.90;;;;;;4898298;29;20179;-73
2023/04/06 03:51:37;;;;;;;14.53;13.10;;;-1.90;99.90;;;;;;4912643;29;20766;-75
2023/04/06 03:54:02;;;;;;;15.00;13.67;;;-1.90;99.90;;;;;;4899189;29;20183;-77
2023/04/06 03:56:28;;;;;;;13.87;12.57;;;-2.00;99.90;;;;;;4907781;29;20566;-75
2023/04/06 03:58:54;;;;;;;15.63;13.93;;;-1.90;99.90;;;;;;4916996;29;20201;-75
2023/04/06 04:01:20;;;;;;;14.17;12.93;;;-2.00;99.90;;;;;;4917308;29;20222;-76
2023/04/06 04:03:46;;;;;;;15.57;14.03;;;-2.00;99.90;;;;;;4934814;29;20265;-75
2023/04/06 04:06:12;;;;;;;15.47;13.87;;;-2.00;99.90;;;;;;4916676;29;20183;-75
2023/04/06 04:08:37;;;;;;;13.77;12.57;;;-2.00;99.90;;;;;;4925775;29;20669;-75
2023/04/06 04:11:03;;;;;;;17.33;15.63;;;-2.10;99.90;;;;;;4899219;29;20211;-75
2023/04/06 04:13:29;;;;;;;17.47;14.00;;;-2.10;99.90;;;;;;4915688;29;20187;-75
2023/04/06 04:15:56;;;;;;;18.07;15.07;;;-2.20;99.90;;;;;;4898719;29;20644;-71
2023/04/06 04:18:22;;;;;;;16.53;15.10;;;-2.20;99.90;;;;;;4898335;29;20274;-70
2023/04/06 04:20:47;;;;;;;15.30;13.83;;;-2.20;99.90;;;;;;4897913;29;20207;-71
2023/04/06 04:23:13;;;;;;;13.73;12.50;;;-2.20;99.90;;;;;;4915245;29;20892;-70
2023/04/06 04:25:39;;;;;;;13.60;12.27;;;-2.20;99.90;;;;;;4915206;29;20198;-70
2023/04/06 04:28:05;;;;;;;14.33;13.03;;;-2.20;99.90;;;;;;4898515;29;20615;-71
2023/04/06 04:30:30;;;;;;;13.53;12.23;;;-2.20;99.90;;;;;;4900725;29;20580;-70
2023/04/06 04:32:56;;;;;;;14.40;12.90;;;-2.20;99.90;;;;;;4919200;29;20607;-71
2023/04/06 04:35:22;;;;;;;13.77;12.47;;;-2.20;99.90;;;;;;4915333;29;20298;-71
2023/04/06 04:37:48;;;;;;;14.30;13.00;;;-2.20;99.90;;;;;;4915554;29;20243;-71
2023/04/06 04:40:14;;;;;;;15.70;13.50;;;-2.10;99.90;;;;;;4899868;29;20214;-70
2023/04/06 04:42:40;;;;;;;14.80;13.30;;;-2.20;99.90;;;;;;4934110;29;20655;-70
2023/04/06 04:45:06;;;;;;;15.77;13.93;;;-2.20;99.90;;;;;;4925542;29;20194;-70
2023/04/06 04:47:32;;;;;;;15.73;13.40;;;-2.30;99.90;;;;;;4915081;29;20687;-70
2023/04/06 04:49:57;;;;;;;14.67;13.27;;;-2.30;99.90;;;;;;4914572;29;20282;-70
2023/04/06 04:52:23;;;;;;;15.33;13.73;;;-2.40;99.90;;;;;;4914638;29;20203;-70
2023/04/06 04:54:49;;;;;;;15.30;13.60;;;-2.30;99.90;;;;;;4898119;29;20194;-70
2023/04/06 04:57:15;;;;;;;14.90;13.40;;;-2.30;99.90;;;;;;4897869;29;20187;-69
2023/04/06 04:59:43;;;;;;;14.30;12.90;;;-2.40;99.90;;;;;;4897502;29;20364;-69
2023/04/06 05:02:09;;;;;;;13.93;12.43;;;-2.30;99.90;;;;;;4914405;29;20218;-69
2023/04/06 05:04:35;;;;;;;14.33;13.03;;;-2.40;99.90;;;;;;4897582;29;20189;-70
2023/04/06 05:07:09;;;;;;;15.57;13.37;;;-2.40;99.90;;;;;;4914637;29;20179;-70
2023/04/06 05:09:35;;;;;;;18.33;13.33;;;-2.30;99.90;;;;;;4913954;29;20187;-70
2023/04/06 05:12:01;;;;;;;14.03;12.63;;;-2.20;99.90;;;;;;4914562;29;20274;-70
2023/04/06 05:14:27;;;;;;;22.67;14.23;;;-2.10;99.90;;;;;;4897546;29;20203;-70
2023/04/06 05:16:53;;;;;;;17.03;13.80;;;-2.10;99.90;;;;;;4914325;29;20278;-70
2023/04/06 05:19:20;;;;;;;16.33;14.20;;;-2.00;99.90;;;;;;4897118;29;20575;-69
2023/04/06 05:21:45;;;;;;;16.73;14.60;;;-1.80;99.90;;;;;;4914323;29;20205;-69
2023/04/06 05:24:11;;;;;;;21.60;14.50;;;-1.50;99.90;;;;;;4914384;29;20568;-69
2023/04/06 05:26:37;;;;;;;17.80;15.90;;;-1.30;99.90;;;;;;4914047;29;20198;-71
2023/04/06 05:29:03;;;;;;;17.80;16.00;;;-1.00;99.90;;;;;;4897252;29;20651;-70
2023/04/06 05:31:29;;;;;;;20.70;14.00;;;-0.80;99.90;;;;;;4897813;29;20217;-71
2023/04/06 05:33:56;;;;;;;19.03;16.43;;;-0.60;99.90;;;;;;4897590;29;20187;-71
2023/04/06 05:36:22;;;;;;;16.27;14.57;;;-0.40;99.90;;;;;;4914487;29;20178;-70
2023/04/06 05:38:50;;;;;;;17.13;14.63;;;-0.30;99.90;;;;;;4914249;29;20211;-70
2023/04/06 05:41:16;;;;;;;25.50;14.20;;;0.00;99.90;;;;;;4914103;29;20206;-71
2023/04/06 05:43:41;;;;;;;16.97;14.23;;;0.40;99.90;;;;;;4897726;29;20555;-70
2023/04/06 05:46:07;;;;;;;15.53;13.60;;;0.70;99.90;;;;;;4930700;29;20585;-70
2023/04/06 05:48:33;;;;;;;15.37;13.77;;;1.00;99.90;;;;;;4932831;29;20559;-70
2023/04/06 05:50:59;;;;;;;16.40;14.03;;;1.30;99.90;;;;;;4933319;29;20217;-67
2023/04/06 05:53:26;;;;;;;15.10;13.40;;;1.70;99.90;;;;;;4933189;29;20540;-67
2023/04/06 05:55:52;;;;;;;16.80;14.33;;;1.90;99.90;;;;;;4933013;29;20186;-67
2023/04/06 05:58:17;;;;;;;16.33;14.63;;;2.10;99.90;;;;;;4932731;29;20557;-67
2023/04/06 06:00:45;;;;;;;16.57;14.40;;;2.40;99.90;;;;;;4915892;29;20210;-68
2023/04/06 06:03:12;;;;;;;16.20;13.27;;;2.60;99.90;;;;;;4929600;29;20202;-71
2023/04/06 06:05:38;;;;;;;14.47;12.87;;;2.70;99.90;;;;;;4913391;29;20179;-70
2023/04/06 06:08:04;;;;;;;14.50;12.80;;;2.80;99.90;;;;;;4913757;29;20604;-70
2023/04/06 06:10:30;;;;;;;13.73;12.43;;;2.70;99.90;;;;;;4913310;29;20234;-70
2023/04/06 06:12:55;;;;;;;12.90;11.70;;;2.80;99.90;;;;;;4897219;29;20593;-70
2023/04/06 06:15:21;;;;;;;13.87;12.13;;;3.10;99.90;;;;;;4912906;29;20724;-69
2023/04/06 06:17:47;;;;;;;25.50;21.37;;;3.50;99.90;;;;;;4914007;29;20187;-70
2023/04/06 06:20:13;;;;;;;20.40;18.77;;;4.00;99.90;;;;;;4913600;29;20183;-70
2023/04/06 06:22:40;;;;;;;15.97;13.60;;;4.40;99.90;;;;;;4913812;29;20213;-69
2023/04/06 06:25:05;;;;;;;13.20;11.47;;;4.80;99.90;;;;;;4896899;29;20226;-70
2023/04/06 06:27:31;;;;;;;14.40;12.90;;;5.00;99.90;;;;;;4896880;29;20203;-69
2023/04/06 06:29:57;;;;;;;12.57;11.33;;;5.30;99.90;;;;;;4915583;29;20183;-70
2023/04/06 06:32:23;;;;;;;12.83;11.57;;;5.70;99.90;;;;;;4917135;29;20211;-70
2023/04/06 06:34:49;;;;;;;13.00;11.67;;;5.80;99.90;;;;;;4917223;29;20214;-70
2023/04/06 06:37:15;;;;;;;14.67;13.17;;;6.40;99.90;;;;;;4917657;29;20191;-70
2023/04/06 06:39:40;;;;;;;12.20;11.13;;;6.50;99.90;;;;;;4917126;29;20222;-70
2023/04/06 06:42:06;;;;;;;18.03;11.77;;;6.70;99.90;;;;;;4916883;29;20265;-70
2023/04/06 06:44:32;;;;;;;13.80;12.47;;;7.00;99.90;;;;;;4917275;29;20182;-70
2023/04/06 06:46:58;;;;;;;15.00;13.20;;;7.20;99.90;;;;;;4917823;29;20548;-70
2023/04/06 06:49:24;;;;;;;13.53;12.33;;;7.20;99.90;;;;;;4916612;29;20227;-70
2023/04/06 06:51:50;;;;;;;12.97;11.43;;;7.40;99.90;;;;;;4916846;29;20227;-70
2023/04/06 06:54:15;;;;;;;13.07;11.47;;;7.50;99.90;;;;;;4900567;29;20187;-70
2023/04/06 06:56:41;;;;;;;14.53;10.37;;;7.80;99.90;;;;;;4901545;29;20191;-70
2023/04/06 06:59:07;;;;;;;10.73;9.83;;;8.00;99.90;;;;;;4916980;29;20219;-70
2023/04/06 07:01:34;;;;;;;13.13;11.77;;;8.20;99.90;;;;;;4916588;29;20266;-70
2023/04/06 07:04:00;;;;;;;11.80;10.77;;;8.30;99.90;;;;;;4899864;29;20199;-70
2023/04/06 07:06:26;;;;;;;12.63;11.37;;;8.10;99.90;;;;;;4899891;29;20221;-70
2023/04/06 07:08:52;;;;;;;12.77;11.57;;;8.30;99.90;;;;;;4899718;29;20734;-70
2023/04/06 07:11:17;;;;;;;15.10;11.57;;;8.60;99.90;;;;;;4916493;29;20203;-70
2023/04/06 07:13:43;;;;;;;11.57;10.17;;;8.70;99.90;;;;;;4900315;29;20607;-70
2023/04/06 07:16:09;;;;;;;11.67;9.77;;;9.10;99.90;;;;;;4899848;29;20730;-70
2023/04/06 07:18:35;;;;;;;11.73;10.53;;;9.30;99.90;;;;;;4914772;29;20713;-70
2023/04/06 07:21:00;;;;;;;11.57;10.53;;;9.60;99.80;;;;;;4916701;29;20209;-71
2023/04/06 07:23:26;;;;;;;12.70;11.50;;;9.50;98.50;;;;;;4916657;29;20234;-69
2023/04/06 07:25:53;;;;;;;13.53;12.33;;;9.60;97.20;;;;;;4916294;29;20186;-70
2023/04/06 07:28:19;;;;;;;14.47;13.03;;;9.80;97.20;;;;;;4899104;29;20194;-69
2023/04/06 07:30:45;;;;;;;14.33;12.83;;;10.10;96.60;;;;;;4916446;29;20294;-69
2023/04/06 07:33:11;;;;;;;12.83;11.40;;;10.50;95.20;;;;;;4916168;29;20279;-69
2023/04/06 07:35:37;;;;;;;17.73;15.93;;;10.80;94.70;;;;;;4899270;29;20218;-69
2023/04/06 07:38:03;;;;;;;18.03;16.23;;;11.10;93.60;;;;;;4899464;29;20210;-69
2023/04/06 07:40:31;;;;;;;14.23;12.97;;;11.20;92.80;;;;;;4914670;29;20211;-72
2023/04/06 07:42:57;;;;;;;14.97;13.60;;;11.00;91.80;;;;;;4899189;29;20237;-70
2023/04/06 07:45:23;;;;;;;13.63;12.33;;;10.50;92.90;;;;;;4899486;29;20285;-70
2023/04/06 07:47:49;;;;;;;14.57;13.13;;;10.50;92.70;;;;;;4899402;29;20652;-70
2023/04/06 07:50:15;;;;;;;13.00;11.67;;;10.40;92.00;;;;;;4915502;29;20183;-70
2023/04/06 07:52:41;;;;;;;13.43;12.03;;;10.40;92.20;;;;;;4915944;29;20175;-70
2023/04/06 07:55:07;;;;;;;14.17;12.80;;;10.20;92.70;;;;;;4899280;29;20599;-71
2023/04/06 07:57:33;;;;;;;14.80;13.57;;;10.70;92.70;;;;;;4915781;29;20239;-71
2023/04/06 08:00:00;;;;;;;15.70;14.20;;;11.20;92.10;;;;;;4915495;29;20218;-70
2023/04/06 08:02:26;;;;;;;13.63;12.53;;;11.50;90.70;;;;;;4915652;29;20221;-69
2023/04/06 08:04:52;;;;;;;14.00;12.53;;;12.00;89.40;;;;;;4899044;29;20183;-69
2023/04/06 08:07:17;;;;;;;12.97;11.60;;;12.30;86.00;;;;;;4899091;29;20206;-70
2023/04/06 08:09:43;;;;;;;12.80;10.80;;;12.60;82.60;;;;;;4898275;29;20576;-70
2023/04/06 08:12:09;;;;;;;13.83;10.57;;;12.50;79.50;;;;;;4915685;29;20584;-70
2023/04/06 08:14:35;;;;;;;11.93;10.60;;;12.20;79.60;;;;;;4898827;29;20231;-70
2023/04/06 08:17:01;;;;;;;12.67;10.23;;;12.40;79.00;;;;;;4915596;29;20666;-70
2023/04/06 08:19:27;;;;;;;14.83;11.27;;;12.70;79.40;;;;;;4915021;29;20214;-71
2023/04/06 08:21:53;;;;;;;11.93;10.73;;;12.30;80.00;;;;;;4898951;29;20687;-70
2023/04/06 08:24:18;;;;;;;13.13;11.83;;;12.30;79.60;;;;;;4915528;29;20663;-69
2023/04/06 08:26:44;;;;;;;12.43;11.13;;;11.70;81.00;;;;;;4915506;29;20175;-70
2023/04/06 08:29:11;;;;;;;15.17;12.37;;;11.50;81.40;;;;;;4915148;29;20265;-70
2023/04/06 08:31:37;;;;;;;14.60;12.63;;;11.30;82.50;;;;;;4898349;29;20714;-70
2023/04/06 08:34:06;;;;;;;13.10;11.70;;;11.80;82.90;;;;;;4898311;29;20225;-70
2023/04/06 08:36:32;;;;;;;12.27;11.07;;;12.60;79.00;;;;;;4898291;29;20681;-71
2023/04/06 08:38:59;;;;;;;13.93;10.93;;;12.80;77.70;;;;;;4898031;29;20218;-70
2023/04/06 08:41:26;;;;;;;12.07;10.77;;;13.00;77.70;;;;;;4898197;29;20230;-70
2023/04/06 08:44:02;;;;;;;16.07;11.47;;;12.90;76.40;;;;;;4915684;29;20206;-70
2023/04/06 08:46:31;;;;;;;12.30;10.77;;;12.50;76.60;;;;;;4898187;29;20187;-70
2023/04/06 08:49:01;;;;;;;11.30;10.20;;;13.00;77.70;;;;;;4898194;29;20183;-70
2023/04/06 08:51:29;;;;;;;13.33;10.77;;;13.40;76.10;;;;;;4914592;29;20234;-70
2023/04/06 08:53:57;;;;;;;12.20;10.70;;;13.40;74.20;;;;;;4915081;29;20183;-70
2023/04/06 08:56:25;;;;;;;13.70;11.20;;;13.70;76.00;;;;;;4914854;29;20302;-71
2023/04/06 08:58:52;;;;;;;13.37;12.17;;;14.10;74.00;;;;;;4897654;29;20258;-70
2023/04/06 09:01:22;;;;;;;14.67;12.33;;;14.40;70.30;;;;;;4914850;29;20219;-70
2023/04/06 09:03:50;;;;;;;12.93;11.60;;;14.80;69.10;;;;;;4914887;29;20183;-70
2023/04/06 09:06:16;;;;;;;13.57;11.13;;;14.80;68.80;;;;;;4914738;29;20187;-70
2023/04/06 09:08:43;;;;;;;13.47;11.57;;;15.20;68.20;;;;;;4914344;29;20187;-70
2023/04/06 09:11:09;;;;;;;12.33;11.17;;;15.50;66.50;;;;;;4914880;29;20270;-71
2023/04/06 09:13:52;;;;;;;12.77;11.43;;;15.40;66.70;;;;;;4914982;29;20187;-70
2023/04/06 09:16:18;;;;;;;13.23;11.17;;;15.10;66.40;;;;;;4952879;23;20244;-70
2023/04/06 09:18:44;;;;;;;13.63;12.23;;;14.70;67.20;;;;;;4916796;29;20206;-70
2023/04/06 09:21:11;;;;;;;14.50;13.00;;;14.60;64.60;;;;;;4940622;29;20182;-70
2023/04/06 09:23:37;;;;;;;13.77;12.43;;;14.40;64.90;;;;;;4934132;29;20562;-70
2023/04/06 09:26:11;;;;;;;16.97;12.93;;;14.60;63.80;;;;;;4919183;29;20347;-70
2023/04/06 09:28:53;;;;;;;14.67;13.10;;;15.10;63.40;;;;;;4914672;29;20559;-70
2023/04/06 09:31:29;;;;;;;12.93;11.60;;;15.30;61.10;;;;;;4915053;29;20182;-71
2023/04/06 09:33:57;;;;;;;15.33;13.73;;;15.40;62.30;;;;;;4914912;29;20595;-72
2023/04/06 09:36:32;;;;;;;16.03;13.87;;;15.70;60.60;;;;;;4914763;29;20354;-70
2023/04/06 09:39:03;;;;;;;14.67;13.37;;;16.10;59.80;;;;;;4897404;29;20227;-70
2023/04/06 09:41:34;;;;;;;16.20;14.67;;;16.30;61.30;;;;;;4897559;29;20183;-72
2023/04/06 09:44:05;;;;;;;15.83;13.03;;;16.60;57.30;;;;;;4914822;29;20634;-71
2023/04/06 09:46:40;;;;;;;12.33;10.73;;;16.60;54.80;;;;;;4897789;29;20211;-71
2023/04/06 09:49:07;;;;;;;13.13;11.83;;;16.70;54.00;;;;;;4914515;29;20273;-71
2023/04/06 09:51:38;;;;;;;21.30;13.20;;;16.40;54.70;;;;;;4914257;29;20327;-71
2023/04/06 09:54:05;;;;;;;12.83;11.70;;;16.40;56.60;;;;;;4914884;29;20202;-71
2023/04/06 09:56:43;;;;;;;12.50;11.30;;;16.90;54.80;;;;;;4914422;29;20203;-71
2023/04/06 09:59:14;;;;;;;11.17;8.83;;;17.50;56.00;;;;;;4913677;29;20257;-71
2023/04/06 10:01:40;;;;;;;10.10;9.20;;;17.80;49.80;;;;;;4914132;29;20541;-71
2023/04/06 10:04:43;;;;;;;9.37;8.47;;;18.00;49.60;;;;;;4915130;29;20179;-72
2023/04/06 10:07:11;;;;;;;11.23;9.23;;;17.80;48.20;;;;;;4917771;29;20277;-72
2023/04/06 10:09:38;;;;;;;10.83;9.77;;;17.50;48.60;;;;;;4917425;29;20192;-71
2023/04/06 10:12:05;;;;;;;9.70;8.87;;;17.40;47.20;;;;;;4917505;29;20191;-70
2023/04/06 10:14:37;;;;;;;11.33;10.20;;;17.70;47.20;;;;;;4917177;29;20238;-72
2023/04/06 10:17:05;;;;;;;12.53;11.23;;;18.20;47.90;;;;;;4917276;29;20198;-69
2023/04/06 10:19:47;;;;;;;9.47;8.67;;;18.30;46.90;;;;;;4916682;29;20203;-70
2023/04/06 10:22:22;;;;;;;10.10;9.10;;;18.50;47.50;;;;;;4900926;29;20207;-70
2023/04/06 10:24:48;;;;;;;10.70;9.77;;;18.60;47.00;;;;;;4917174;29;20277;-72
2023/04/06 10:27:14;;;;;;;10.27;9.27;;;19.00;47.00;;;;;;4917537;29;20183;-70
2023/04/06 10:29:45;;;;;;;10.10;9.10;;;19.00;45.90;;;;;;4916888;29;20638;-69
2023/04/06 10:32:10;;;;;;;9.63;8.73;;;19.20;46.20;;;;;;4917161;29;20568;-70
2023/04/06 10:34:36;;;;;;;9.40;8.45;;;19.80;46.40;;;;;;4917122;29;20203;-70
2023/04/06 10:37:13;;;;;;;9.70;8.70;;;19.80;41.80;;;;;;4916981;29;20555;-72
2023/04/06 10:39:46;;;;;;;10.43;9.53;;;19.20;43.00;;;;;;4916811;29;20222;-71
2023/04/06 10:42:13;;;;;;;10.43;9.37;;;19.10;43.80;;;;;;4917100;29;20183;-70
2023/04/06 10:44:44;;;;;;;10.17;9.27;;;19.30;44.40;;;;;;4916672;29;20203;-69
2023/04/06 10:47:17;;;;;;;10.68;9.45;;;20.20;42.10;;;;;;4917035;29;20187;-70
2023/04/06 10:49:43;;;;;;;9.85;9.05;;;20.10;42.20;;;;;;4916723;29;20694;-71
2023/04/06 10:52:09;;;;;;;10.60;9.70;;;19.90;41.50;;;;;;4917120;29;20186;-72
2023/04/06 10:54:43;;;;;;;10.47;9.37;;;19.30;41.50;;;;;;4917073;29;20245;-72
2023/04/06 10:57:08;;;;;;;10.67;9.60;;;18.70;42.10;;;;;;4900159;29;20568;-72
2023/04/06 10:59:34;;;;;;;9.90;8.90;;;18.40;43.10;;;;;;4916390;29;20222;-72
2023/04/06 11:02:00;;;;;;;9.73;8.67;;;18.30;42.50;;;;;;4916938;29;20214;-72
2023/04/06 11:04:26;;;;;;;9.60;8.60;;;18.50;42.00;;;;;;4899856;29;20186;-71
2023/04/06 11:06:52;;;;;;;9.20;8.40;;;18.80;42.00;;;;;;4899911;29;20745;-71
2023/04/06 11:09:25;;;;;;;9.93;8.90;;;18.90;41.20;;;;;;4916873;29;20187;-72
2023/04/06 11:11:52;;;;;;;9.23;8.37;;;18.90;40.10;;;;;;4917943;29;20554;-72
2023/04/06 11:14:18;;;;;;;10.03;9.13;;;18.80;40.90;;;;;;4901631;29;20190;-72
2023/04/06 11:16:48;;;;;;;11.13;10.20;;;19.20;40.40;;;;;;4920554;29;20199;-71
2023/04/06 11:19:14;;;;;;;9.70;8.90;;;19.60;38.70;;;;;;4907870;29;20226;-72
2023/04/06 11:21:43;;;;;;;9.48;8.60;;;19.30;40.00;;;;;;4904862;29;20584;-71
2023/04/06 11:24:15;;;;;;;9.35;8.45;;;19.50;40.40;;;;;;4917027;29;20217;-70
2023/04/06 11:26:54;;;;;;;10.65;9.63;;;20.00;39.90;;;;;;4916650;29;20179;-70
2023/04/06 11:29:22;;;;;;;11.80;11.00;;;20.60;38.00;;;;;;4899526;29;20191;-70
2023/04/06 11:31:53;;;;;;;13.07;11.85;;;20.60;38.20;;;;;;4916239;29;20191;-70
2023/04/06 11:34:21;;;;;;;12.70;11.52;;;20.80;37.30;;;;;;4916278;29;20223;-70
2023/04/06 11:36:48;;;;;;;13.38;12.18;;;20.70;38.20;;;;;;4899506;29;20659;-70
2023/04/06 11:39:23;;;;;;;12.13;11.23;;;21.00;38.40;;;;;;4915944;29;20222;-70
2023/04/06 11:41:59;;;;;;;12.82;11.77;;;21.50;37.60;;;;;;4899358;29;20186;-70
2023/04/06 11:44:41;;;;;;;12.75;11.70;;;20.80;36.90;;;;;;4916028;29;20643;-71
2023/04/06 11:47:10;;;;;;;11.23;10.25;;;21.20;37.50;;;;;;4916346;29;20239;-70
2023/04/06 11:49:41;;;;;;;14.43;13.38;;;21.00;37.10;;;;;;4899085;29;20235;-70
2023/04/06 11:52:23;;;;;;;12.80;11.90;;;19.90;37.30;;;;;;4916269;29;20609;-70
2023/04/06 11:54:50;;;;;;;10.93;10.23;;;19.50;38.70;;;;;;4915575;29;20218;-70
2023/04/06 11:57:17;;;;;;;13.23;12.23;;;19.50;37.30;;;;;;4898974;29;20238;-71
2023/04/06 11:59:43;;;;;;;13.82;12.82;;;19.60;37.90;;;;;;4915285;29;20434;-70
2023/04/06 12:02:09;;;;;;;11.85;11.02;;;19.90;38.20;;;;;;4915811;29;20270;-69
2023/04/06 12:04:35;;;;;;;11.82;11.02;;;19.90;38.60;;;;;;4898608;29;20293;-70
2023/04/06 12:07:01;;;;;;;15.60;14.45;;;20.10;37.50;;;;;;4899019;29;20270;-70
2023/04/06 12:09:27;;;;;;;16.35;15.45;;;21.20;37.60;;;;;;4898350;29;20191;-70
2023/04/06 12:11:53;;;;;;;12.30;11.55;;;21.60;36.10;;;;;;4898608;29;20190;-70
2023/04/06 12:14:19;;;;;;;14.18;13.32;;;21.70;35.10;;;;;;4915434;29;20191;-70
2023/04/06 12:16:45;;;;;;;14.55;13.38;;;21.90;35.50;;;;;;4915563;29;20242;-71
2023/04/06 12:19:10;;;;;;;17.35;16.10;;;22.50;33.90;;;;;;4915212;29;20225;-71
2023/04/06 12:21:40;;;;;;;13.85;12.98;;;22.60;35.10;;;;;;4898576;29;20180;-70
2023/04/06 12:24:06;;;;;;;13.52;12.52;;;22.00;36.60;;;;;;4915219;29;20725;-70
2023/04/06 12:26:33;;;;;;;16.42;15.38;;;20.80;37.80;;;;;;4914582;29;20211;-70
2023/04/06 12:29:06;;;;;;;14.65;13.65;;;20.50;36.30;;;;;;4915006;29;20577;-70
2023/04/06 12:31:35;;;;;;;15.25;14.07;;;20.70;38.20;;;;;;4915078;29;20241;-71
2023/04/06 12:34:02;;;;;;;13.45;12.55;;;20.40;36.00;;;;;;4898430;29;20179;-71
2023/04/06 12:36:28;;;;;;;14.63;13.70;;;20.50;36.40;;;;;;4915031;29;20305;-70
2023/04/06 12:38:55;;;;;;;13.75;12.95;;;20.60;36.30;;;;;;4914664;29;20346;-70
2023/04/06 12:41:21;;;;;;;17.10;16.00;;;20.90;35.30;;;;;;4915240;29;20187;-70
2023/04/06 12:43:48;;;;;;;15.68;14.65;;;20.90;34.50;;;;;;4915108;29;20187;-70
2023/04/06 12:46:14;;;;;;;13.82;12.82;;;20.80;35.40;;;;;;4915005;29;20215;-70
2023/04/06 12:48:40;;;;;;;15.07;14.27;;;20.30;35.90;;;;;;4914579;29;20673;-70
2023/04/06 12:51:06;;;;;;;14.00;13.05;;;20.40;36.50;;;;;;4914944;29;20182;-70
2023/04/06 12:53:33;;;;;;;18.10;16.90;;;20.40;34.90;;;;;;4915093;29;20187;-70
2023/04/06 12:56:00;;;;;;;17.63;16.55;;;21.00;32.90;;;;;;4914734;29;20702;-71
2023/04/06 12:58:27;;;;;;;18.27;17.20;;;21.70;31.60;;;;;;4914774;29;20206;-71
2023/04/06 13:00:53;;;;;;;16.75;15.68;;;22.50;30.40;;;;;;4914738;29;20187;-71
2023/04/06 13:03:20;;;;;;;15.30;14.20;;;23.80;29.70;;;;;;4898033;29;20179;-71
2023/04/06 13:05:47;;;;;;;13.85;13.05;;;24.00;31.90;;;;;;4897784;29;20311;-70
2023/04/06 13:08:14;;;;;;;13.52;12.63;;;23.00;32.30;;;;;;4914791;29;20187;-70
2023/04/06 13:10:53;;;;;;;18.50;17.17;;;22.70;32.20;;;;;;4899101;29;20206;-70
2023/04/06 13:13:24;;;;;;;15.27;14.18;;;22.60;33.60;;;;;;4916862;29;20663;-70
2023/04/06 13:15:51;;;;;;;15.48;14.48;;;22.40;33.20;;;;;;4920288;29;20294;-71
2023/04/06 13:18:17;;;;;;;16.55;15.55;;;21.80;32.60;;;;;;4914336;29;20215;-71
2023/04/06 13:20:42;;;;;;;14.57;13.57;;;21.40;33.20;;;;;;4914660;29;20193;-71
2023/04/06 13:23:08;;;;;;;12.18;11.38;;;22.80;31.10;;;;;;4914426;29;20722;-71
2023/04/06 13:25:34;;;;;;;10.57;9.88;;;23.50;31.60;;;;;;4914337;29;20401;-71
2023/04/06 13:28:00;;;;;;;9.75;9.02;;;24.30;28.80;;;;;;4914647;29;20238;-70
2023/04/06 13:30:26;;;;;;;10.43;9.35;;;24.10;29.00;;;;;;4914101;29;20254;-71
2023/04/06 13:32:52;;;;;;;12.13;11.23;;;24.50;28.30;;;;;;4914617;29;20651;-71
2023/04/06 13:35:18;;;;;;;10.23;9.43;;;23.80;29.80;;;;;;4914308;29;20246;-71
2023/04/06 13:37:44;;;;;;;10.32;9.30;;;23.40;28.50;;;;;;4914846;29;20182;-71
2023/04/06 13:40:11;;;;;;;9.23;8.63;;;23.80;28.20;;;;;;4918013;29;20217;-71
2023/04/06 13:42:39;;;;;;;9.00;8.38;;;23.50;28.30;;;;;;4918200;29;20207;-71
2023/04/06 13:45:06;;;;;;;12.88;11.98;;;23.20;28.20;;;;;;4901352;29;20305;-71
2023/04/06 13:47:31;;;;;;;15.23;14.00;;;22.80;32.00;;;;;;4901367;29;20187;-71
2023/04/06 13:49:57;;;;;;;13.27;12.38;;;23.10;32.50;;;;;;4900787;29;20230;-71
2023/04/06 13:52:23;;;;;;;12.38;11.55;;;22.90;30.40;;;;;;4918124;29;20194;-71
2023/04/06 13:54:50;;;;;;;9.48;8.70;;;22.80;30.40;;;;;;4917872;29;20211;-71
2023/04/06 13:57:15;;;;;;;11.35;10.32;;;22.90;29.00;;;;;;4901395;29;20266;-70
2023/04/06 13:59:41;;;;;;;11.82;11.02;;;22.00;29.50;;;;;;4917595;29;20246;-71
2023/04/06 14:02:09;;;;;;;14.02;12.93;;;21.10;30.80;;;;;;4918233;29;20624;-70
2023/04/06 14:04:35;;;;;;;17.02;15.93;;;20.90;31.40;;;;;;4917881;29;20282;-71
2023/04/06 14:07:02;;;;;;;15.90;14.60;;;20.40;31.50;;;;;;4917952;29;20242;-71
2023/04/06 14:09:29;;;;;;;18.08;16.90;;;20.50;31.30;;;;;;4917322;29;20570;-71
2023/04/06 14:11:56;;;;;;;18.50;17.23;;;20.10;31.60;;;;;;4917970;29;20561;-70
2023/04/06 14:14:22;;;;;;;14.07;13.18;;;19.20;32.80;;;;;;4917296;29;20186;-71
2023/04/06 14:16:48;;;;;;;14.68;13.75;;;19.20;34.30;;;;;;4917494;29;20253;-70
2023/04/06 14:19:17;;;;;;;13.57;12.57;;;19.00;35.50;;;;;;4900020;29;20214;-70
2023/04/06 14:21:44;;;;;;;12.40;11.23;;;18.80;37.70;;;;;;4900452;29;20656;-71
2023/04/06 14:24:10;;;;;;;11.47;10.37;;;18.00;39.60;;;;;;4919494;29;20424;-71
2023/04/06 14:26:36;;;;;;;12.83;11.77;;;17.60;39.10;;;;;;4921099;29;20643;-72
2023/04/06 14:29:05;;;;;;;13.00;11.83;;;18.20;36.20;;;;;;4900536;29;20187;-70
2023/04/06 14:31:32;;;;;;;12.77;11.87;;;18.30;36.20;;;;;;4918016;29;20208;-71
2023/04/06 14:33:58;;;;;;;11.90;10.90;;;18.50;35.50;;;;;;4918512;29;20662;-71
2023/04/06 14:36:26;;;;;;;14.20;13.20;;;18.80;36.70;;;;;;4917702;29;20239;-71
2023/04/06 14:38:52;;;;;;;14.40;13.10;;;19.00;33.80;;;;;;4917571;29;20252;-71
2023/04/06 14:41:24;;;;;;;14.02;13.02;;;18.70;32.00;;;;;;4917010;29;20183;-71
2023/04/06 14:43:52;;;;;;;12.67;11.60;;;18.60;35.70;;;;;;4917699;29;20537;-71
2023/04/06 14:46:18;;;;;;;12.67;11.43;;;18.10;35.80;;;;;;4916925;29;20306;-71
2023/04/06 14:48:45;;;;;;;12.87;11.47;;;17.90;38.60;;;;;;4916171;29;20289;-71
2023/04/06 14:51:11;;;;;;;12.67;11.67;;;17.40;40.50;;;;;;4916370;29;20191;-71
2023/04/06 14:53:37;;;;;;;12.07;11.07;;;17.20;39.50;;;;;;4917103;29;20187;-71
2023/04/06 14:56:03;;;;;;;10.47;9.57;;;17.10;39.50;;;;;;4916814;29;20214;-70
2023/04/06 14:58:29;;;;;;;9.77;9.03;;;17.60;40.50;;;;;;4916693;29;20223;-70
2023/04/06 15:00:59;;;;;;;10.17;9.27;;;17.90;39.80;;;;;;4900203;29;20270;-71
2023/04/06 15:03:28;;;;;;;11.40;10.40;;;18.40;39.70;;;;;;4917147;29;20241;-69
2023/04/06 15:05:55;;;;;;;10.93;9.93;;;18.90;39.80;;;;;;4923921;29;20215;-70
2023/04/06 15:08:22;;;;;;;11.27;10.37;;;19.30;39.60;;;;;;4905286;29;20194;-71
2023/04/06 15:10:51;;;;;;;12.68;11.68;;;19.30;38.40;;;;;;4916874;29;20568;-71
2023/04/06 15:13:17;;;;;;;13.20;12.20;;;19.80;38.10;;;;;;4917049;29;20545;-71
2023/04/06 15:15:44;;;;;;;13.20;12.20;;;20.10;36.10;;;;;;4945695;23;20280;-70
2023/04/06 15:18:11;;;;;;;12.47;11.33;;;19.10;36.00;;;;;;4935327;29;20181;-70
2023/04/06 15:20:37;;;;;;;11.77;10.77;;;17.90;37.40;;;;;;4934927;29;20214;-71
2023/04/06 15:23:03;;;;;;;9.23;8.33;;;17.30;38.60;;;;;;4935461;29;20189;-71
2023/04/06 15:25:29;;;;;;;8.50;7.70;;;17.00;38.70;;;;;;4927966;29;20611;-70
2023/04/06 15:27:56;;;;;;;8.20;7.50;;;16.80;38.90;;;;;;4916020;29;20175;-71
2023/04/06 15:30:22;;;;;;;9.00;8.20;;;16.80;39.20;;;;;;4915210;29;20194;-69